sensor_id;sensor_type;location;lat;lon;timestamp;temperature;humidity
17632;DHT22;8934;51.194;17.150;2023-02-15T00:00:47;-1.60;99.90
17632;DHT22;8934;51.194;17.150;2023-02-15T00:03:35;-1.60;99.90
17632;DHT22;8934;51.194;17.150;2023-02-15T00:06:23;-1.70;99.90
17632;DHT22;8934;51.194;17.150;2023-02-15T00:09:11;-1.70;99.90
17632;DHT22;8934;51.194;17.150;2023-02-15T00:11:58;-1.70;99.90
17632;DHT22;8934;51.194;17.150;2023-02-15T00:14:47;-1.70;99.90
17632;DHT22;8934;51.194;17.150;2023-02-15T00:17:35;-1.70;99.90
17632;DHT22;8934;51.194;17.150;2023-02-15T00:20:23;-1.70;99.90
17632;DHT22;8934;51.194;17.150;2023-02-15T00:23:10;-1.70;99.90
17632;DHT22;8934;51.194;17.150;2023-02-15T00:26:06;-1.80;99.90
17632;DHT22;8934;51.194;17.150;2023-02-15T00:28:55;-1.80;99.90
17632;DHT22;8934;51.194;17.150;2023-02-15T00:31:47;-1.80;99.90
17632;DHT22;8934;51.194;17.150;2023-02-15T00:34:35;-1.80;99.90
17632;DHT22;8934;51.194;17.150;2023-02-15T00:37:22;-1.80;99.90
17632;DHT22;8934;51.194;17.150;2023-02-15T00:40:10;-1.80;99.90
17632;DHT22;8934;51.194;17.150;2023-02-15T00:42:58;-1.80;99.90
17632;DHT22;8934;51.194;17.150;2023-02-15T00:45:46;-1.90;99.90
17632;DHT22;8934;51.194;17.150;2023-02-15T00:48:35;-1.90;99.90
17632;DHT22;8934;51.194;17.150;2023-02-15T00:51:23;-1.90;99.90
17632;DHT22;8934;51.194;17.150;2023-02-15T00:54:11;-2.00;99.90
17632;DHT22;8934;51.194;17.150;2023-02-15T00:56:59;-2.10;99.90
17632;DHT22;8934;51.194;17.150;2023-02-15T00:59:46;-2.10;99.90
17632;DHT22;8934;51.194;17.150;2023-02-15T01:02:34;-2.20;99.90
17632;DHT22;8934;51.194;17.150;2023-02-15T01:05:22;-2.30;99.90
17632;DHT22;8934;51.194;17.150;2023-02-15T01:08:10;-2.30;99.90
17632;DHT22;8934;51.194;17.150;2023-02-15T01:11:03;-2.40;99.90
17632;DHT22;8934;51.194;17.150;2023-02-15T01:13:53;-2.50;99.90
17632;DHT22;8934;51.194;17.150;2023-02-15T01:16:41;-2.60;99.90
17632;DHT22;8934;51.194;17.150;2023-02-15T01:19:29;-2.60;99.90
17632;DHT22;8934;51.194;17.150;2023-02-15T01:22:19;-2.70;99.90
17632;DHT22;8934;51.194;17.150;2023-02-15T01:25:07;-2.70;99.90
17632;DHT22;8934;51.194;17.150;2023-02-15T01:27:54;-2.70;99.90
17632;DHT22;8934;51.194;17.150;2023-02-15T01:30:42;-2.80;99.90
17632;DHT22;8934;51.194;17.150;2023-02-15T01:33:30;-2.80;99.90
17632;DHT22;8934;51.194;17.150;2023-02-15T01:36:17;-2.90;99.90
17632;DHT22;8934;51.194;17.150;2023-02-15T01:39:06;-2.90;99.90
17632;DHT22;8934;51.194;17.150;2023-02-15T01:41:56;-2.90;99.90
17632;DHT22;8934;51.194;17.150;2023-02-15T01:44:49;-2.90;99.90
17632;DHT22;8934;51.194;17.150;2023-02-15T01:47:40;-3.00;99.90
17632;DHT22;8934;51.194;17.150;2023-02-15T01:50:32;-3.00;99.90
17632;DHT22;8934;51.194;17.150;2023-02-15T01:53:24;-3.00;99.90
17632;DHT22;8934;51.194;17.150;2023-02-15T01:56:16;-3.10;99.90
17632;DHT22;8934;51.194;17.150;2023-02-15T01:59:11;-3.10;99.90
17632;DHT22;8934;51.194;17.150;2023-02-15T02:02:01;-3.10;99.90
17632;DHT22;8934;51.194;17.150;2023-02-15T02:04:51;-3.10;99.90
17632;DHT22;8934;51.194;17.150;2023-02-15T02:07:42;-3.10;99.90
17632;DHT22;8934;51.194;17.150;2023-02-15T02:10:31;-3.10;99.90
17632;DHT22;8934;51.194;17.150;2023-02-15T02:13:20;-3.20;99.90
17632;DHT22;8934;51.194;17.150;2023-02-15T02:16:13;-3.20;99.90
17632;DHT22;8934;51.194;17.150;2023-02-15T02:23:05;-3.30;99.90
17632;DHT22;8934;51.194;17.150;2023-02-15T02:26:12;-3.30;99.90
17632;DHT22;8934;51.194;17.150;2023-02-15T02:29:26;-3.40;99.90
17632;DHT22;8934;51.194;17.150;2023-02-15T02:32:52;-3.40;99.90
17632;DHT22;8934;51.194;17.150;2023-02-15T02:35:49;-3.50;99.90
17632;DHT22;8934;51.194;17.150;2023-02-15T02:38:49;-3.40;99.90
17632;DHT22;8934;51.194;17.150;2023-02-15T02:41:44;-3.40;99.90
17632;DHT22;8934;51.194;17.150;2023-02-15T02:44:41;-3.50;99.90
17632;DHT22;8934;51.194;17.150;2023-02-15T02:47:35;-3.50;99.90
17632;DHT22;8934;51.194;17.150;2023-02-15T02:50:27;-3.50;99.90
17632;DHT22;8934;51.194;17.150;2023-02-15T02:53:15;-3.50;99.90
17632;DHT22;8934;51.194;17.150;2023-02-15T02:56:09;-3.50;99.90
17632;DHT22;8934;51.194;17.150;2023-02-15T02:59:01;-3.50;99.90
17632;DHT22;8934;51.194;17.150;2023-02-15T03:01:53;-3.40;99.90
17632;DHT22;8934;51.194;17.150;2023-02-15T03:04:46;-3.40;99.90
17632;DHT22;8934;51.194;17.150;2023-02-15T03:07:46;-3.40;99.90
17632;DHT22;8934;51.194;17.150;2023-02-15T03:10:37;-3.40;99.90
17632;DHT22;8934;51.194;17.150;2023-02-15T03:13:27;-3.40;99.90
17632;DHT22;8934;51.194;17.150;2023-02-15T03:16:16;-3.40;99.90
17632;DHT22;8934;51.194;17.150;2023-02-15T03:19:19;-3.30;99.90
17632;DHT22;8934;51.194;17.150;2023-02-15T03:22:14;-3.30;99.90
17632;DHT22;8934;51.194;17.150;2023-02-15T03:25:06;-3.30;99.90
17632;DHT22;8934;51.194;17.150;2023-02-15T03:27:59;-3.20;99.90
17632;DHT22;8934;51.194;17.150;2023-02-15T03:30:52;-3.20;99.90
17632;DHT22;8934;51.194;17.150;2023-02-15T03:33:47;-3.10;99.90
17632;DHT22;8934;51.194;17.150;2023-02-15T03:36:42;-3.20;99.90
17632;DHT22;8934;51.194;17.150;2023-02-15T03:39:33;-3.20;99.90
17632;DHT22;8934;51.194;17.150;2023-02-15T03:42:26;-3.20;99.90
17632;DHT22;8934;51.194;17.150;2023-02-15T03:45:21;-3.30;99.90
17632;DHT22;8934;51.194;17.150;2023-02-15T03:48:10;-3.30;99.90
17632;DHT22;8934;51.194;17.150;2023-02-15T03:51:00;-3.30;99.90
17632;DHT22;8934;51.194;17.150;2023-02-15T03:54:08;-3.30;99.90
17632;DHT22;8934;51.194;17.150;2023-02-15T03:56:57;-3.30;99.90
17632;DHT22;8934;51.194;17.150;2023-02-15T04:00:03;-3.40;99.90
17632;DHT22;8934;51.194;17.150;2023-02-15T04:03:17;-3.40;99.90
17632;DHT22;8934;51.194;17.150;2023-02-15T04:06:09;-3.40;99.90
17632;DHT22;8934;51.194;17.150;2023-02-15T04:08:56;-3.40;99.90
17632;DHT22;8934;51.194;17.150;2023-02-15T04:12:01;-3.40;99.90
17632;DHT22;8934;51.194;17.150;2023-02-15T04:14:49;-3.30;99.90
17632;DHT22;8934;51.194;17.150;2023-02-15T04:17:55;-3.30;99.90
17632;DHT22;8934;51.194;17.150;2023-02-15T04:20:44;-3.10;99.90
17632;DHT22;8934;51.194;17.150;2023-02-15T04:23:48;-3.00;99.90
17632;DHT22;8934;51.194;17.150;2023-02-15T04:26:53;-2.80;99.90
17632;DHT22;8934;51.194;17.150;2023-02-15T04:29:42;-2.70;99.90
17632;DHT22;8934;51.194;17.150;2023-02-15T04:32:29;-2.60;99.90
17632;DHT22;8934;51.194;17.150;2023-02-15T04:35:18;-2.50;99.90
17632;DHT22;8934;51.194;17.150;2023-02-15T04:38:06;-2.40;99.90
17632;DHT22;8934;51.194;17.150;2023-02-15T04:40:54;-2.30;99.90
17632;DHT22;8934;51.194;17.150;2023-02-15T04:43:42;-2.20;99.90
17632;DHT22;8934;51.194;17.150;2023-02-15T04:46:29;-2.10;99.90
17632;DHT22;8934;51.194;17.150;2023-02-15T04:49:17;-1.90;99.90
17632;DHT22;8934;51.194;17.150;2023-02-15T04:52:06;-1.80;99.90
17632;DHT22;8934;51.194;17.150;2023-02-15T04:54:54;-1.80;99.90
17632;DHT22;8934;51.194;17.150;2023-02-15T04:57:41;-1.80;99.90
17632;DHT22;8934;51.194;17.150;2023-02-15T05:00:29;-1.80;99.90
17632;DHT22;8934;51.194;17.150;2023-02-15T05:03:16;-1.80;99.90
17632;DHT22;8934;51.194;17.150;2023-02-15T05:06:05;-1.80;99.90
17632;DHT22;8934;51.194;17.150;2023-02-15T05:08:54;-1.80;99.90
17632;DHT22;8934;51.194;17.150;2023-02-15T05:11:45;-1.70;99.90
17632;DHT22;8934;51.194;17.150;2023-02-15T05:14:32;-1.70;99.90
17632;DHT22;8934;51.194;17.150;2023-02-15T05:17:20;-1.70;99.90
17632;DHT22;8934;51.194;17.150;2023-02-15T05:20:08;-1.70;99.90
17632;DHT22;8934;51.194;17.150;2023-02-15T05:22:55;-1.70;99.90
17632;DHT22;8934;51.194;17.150;2023-02-15T05:25:48;-1.70;99.90
17632;DHT22;8934;51.194;17.150;2023-02-15T05:28:53;-1.70;99.90
17632;DHT22;8934;51.194;17.150;2023-02-15T05:31:40;-1.70;99.90
17632;DHT22;8934;51.194;17.150;2023-02-15T05:34:33;-1.80;99.90
17632;DHT22;8934;51.194;17.150;2023-02-15T05:37:21;-1.80;99.90
17632;DHT22;8934;51.194;17.150;2023-02-15T05:40:09;-1.90;99.90
17632;DHT22;8934;51.194;17.150;2023-02-15T05:42:58;-1.90;99.90
17632;DHT22;8934;51.194;17.150;2023-02-15T05:45:45;-2.00;99.90
17632;DHT22;8934;51.194;17.150;2023-02-15T05:48:33;-2.00;99.90
17632;DHT22;8934;51.194;17.150;2023-02-15T05:51:21;-2.00;99.90
17632;DHT22;8934;51.194;17.150;2023-02-15T05:54:09;-2.10;99.90
17632;DHT22;8934;51.194;17.150;2023-02-15T05:56:56;-2.10;99.90
17632;DHT22;8934;51.194;17.150;2023-02-15T05:59:45;-2.20;99.90
17632;DHT22;8934;51.194;17.150;2023-02-15T06:02:34;-2.20;99.90
17632;DHT22;8934;51.194;17.150;2023-02-15T06:05:21;-2.20;99.90
17632;DHT22;8934;51.194;17.150;2023-02-15T06:08:09;-2.20;99.90
17632;DHT22;8934;51.194;17.150;2023-02-15T06:10:57;-2.30;99.90
17632;DHT22;8934;51.194;17.150;2023-02-15T06:13:45;-2.30;99.90
17632;DHT22;8934;51.194;17.150;2023-02-15T06:16:33;-2.40;99.90
17632;DHT22;8934;51.194;17.150;2023-02-15T06:19:21;-2.40;99.90
17632;DHT22;8934;51.194;17.150;2023-02-15T06:22:09;-2.30;99.90
17632;DHT22;8934;51.194;17.150;2023-02-15T06:25:00;-2.30;99.90
17632;DHT22;8934;51.194;17.150;2023-02-15T06:27:47;-2.30;99.90
17632;DHT22;8934;51.194;17.150;2023-02-15T06:30:35;-2.20;99.90
17632;DHT22;8934;51.194;17.150;2023-02-15T06:33:24;-2.10;99.90
17632;DHT22;8934;51.194;17.150;2023-02-15T06:36:12;-2.00;99.90
17632;DHT22;8934;51.194;17.150;2023-02-15T06:38:59;-2.00;99.90
17632;DHT22;8934;51.194;17.150;2023-02-15T06:41:48;-1.90;99.90
17632;DHT22;8934;51.194;17.150;2023-02-15T06:44:36;-1.80;99.90
17632;DHT22;8934;51.194;17.150;2023-02-15T06:47:23;-1.70;99.90
17632;DHT22;8934;51.194;17.150;2023-02-15T06:50:12;-1.60;99.90
17632;DHT22;8934;51.194;17.150;2023-02-15T06:53:00;-1.60;99.90
17632;DHT22;8934;51.194;17.150;2023-02-15T06:55:47;-1.50;99.90
17632;DHT22;8934;51.194;17.150;2023-02-15T06:58:35;-1.40;99.90
17632;DHT22;8934;51.194;17.150;2023-02-15T07:01:22;-1.30;99.90
17632;DHT22;8934;51.194;17.150;2023-02-15T07:04:10;-1.20;99.90
17632;DHT22;8934;51.194;17.150;2023-02-15T07:06:59;-1.10;99.90
17632;DHT22;8934;51.194;17.150;2023-02-15T07:09:46;-1.00;99.90
17632;DHT22;8934;51.194;17.150;2023-02-15T07:12:34;-0.90;99.90
17632;DHT22;8934;51.194;17.150;2023-02-15T07:15:32;-0.80;99.90
17632;DHT22;8934;51.194;17.150;2023-02-15T07:18:19;-0.60;99.90
17632;DHT22;8934;51.194;17.150;2023-02-15T07:21:07;-0.50;99.90
17632;DHT22;8934;51.194;17.150;2023-02-15T07:23:57;-0.40;99.90
17632;DHT22;8934;51.194;17.150;2023-02-15T07:26:45;-0.30;99.90
17632;DHT22;8934;51.194;17.150;2023-02-15T07:29:33;-0.20;99.90
17632;DHT22;8934;51.194;17.150;2023-02-15T07:32:21;0.00;99.90
17632;DHT22;8934;51.194;17.150;2023-02-15T07:35:08;0.20;99.90
17632;DHT22;8934;51.194;17.150;2023-02-15T07:37:55;0.40;99.90
17632;DHT22;8934;51.194;17.150;2023-02-15T07:40:45;0.60;99.90
17632;DHT22;8934;51.194;17.150;2023-02-15T07:43:34;0.70;99.90
17632;DHT22;8934;51.194;17.150;2023-02-15T07:46:22;0.90;99.90
17632;DHT22;8934;51.194;17.150;2023-02-15T07:49:10;1.10;99.90
17632;DHT22;8934;51.194;17.150;2023-02-15T07:51:57;1.30;99.90
17632;DHT22;8934;51.194;17.150;2023-02-15T07:54:45;1.50;99.90
17632;DHT22;8934;51.194;17.150;2023-02-15T07:57:33;1.60;99.90
17632;DHT22;8934;51.194;17.150;2023-02-15T08:00:22;1.70;99.90
17632;DHT22;8934;51.194;17.150;2023-02-15T08:03:11;1.80;99.90
17632;DHT22;8934;51.194;17.150;2023-02-15T08:06:01;2.00;99.90
17632;DHT22;8934;51.194;17.150;2023-02-15T08:08:49;2.00;99.90
17632;DHT22;8934;51.194;17.150;2023-02-15T08:11:38;2.10;99.90
17632;DHT22;8934;51.194;17.150;2023-02-15T08:14:28;2.10;99.90
17632;DHT22;8934;51.194;17.150;2023-02-15T08:17:15;2.10;99.90
17632;DHT22;8934;51.194;17.150;2023-02-15T08:20:03;2.20;99.90
17632;DHT22;8934;51.194;17.150;2023-02-15T08:22:51;2.30;99.90
17632;DHT22;8934;51.194;17.150;2023-02-15T08:25:39;2.40;99.90
17632;DHT22;8934;51.194;17.150;2023-02-15T08:28:26;2.50;99.90
17632;DHT22;8934;51.194;17.150;2023-02-15T08:31:15;2.60;99.90
17632;DHT22;8934;51.194;17.150;2023-02-15T08:34:03;2.70;99.90
17632;DHT22;8934;51.194;17.150;2023-02-15T08:36:51;2.80;99.90
17632;DHT22;8934;51.194;17.150;2023-02-15T08:39:39;2.90;99.90
17632;DHT22;8934;51.194;17.150;2023-02-15T08:42:27;3.00;99.90
17632;DHT22;8934;51.194;17.150;2023-02-15T08:45:15;3.10;99.90
17632;DHT22;8934;51.194;17.150;2023-02-15T08:48:04;3.30;99.90
17632;DHT22;8934;51.194;17.150;2023-02-15T08:50:52;3.40;99.90
17632;DHT22;8934;51.194;17.150;2023-02-15T08:53:41;3.50;99.90
17632;DHT22;8934;51.194;17.150;2023-02-15T08:56:32;3.50;99.90
17632;DHT22;8934;51.194;17.150;2023-02-15T08:59:21;3.70;99.90
17632;DHT22;8934;51.194;17.150;2023-02-15T09:02:10;3.80;99.90
17632;DHT22;8934;51.194;17.150;2023-02-15T09:05:00;3.90;99.90
17632;DHT22;8934;51.194;17.150;2023-02-15T09:07:47;4.10;99.90
17632;DHT22;8934;51.194;17.150;2023-02-15T09:10:35;4.30;99.90
17632;DHT22;8934;51.194;17.150;2023-02-15T09:13:22;4.40;99.90
17632;DHT22;8934;51.194;17.150;2023-02-15T09:16:10;4.50;99.90
17632;DHT22;8934;51.194;17.150;2023-02-15T09:18:57;4.60;99.90
17632;DHT22;8934;51.194;17.150;2023-02-15T09:21:47;4.70;99.90
17632;DHT22;8934;51.194;17.150;2023-02-15T09:24:34;4.80;99.90
17632;DHT22;8934;51.194;17.150;2023-02-15T09:27:22;4.90;99.90
17632;DHT22;8934;51.194;17.150;2023-02-15T09:30:10;5.10;99.90
17632;DHT22;8934;51.194;17.150;2023-02-15T09:32:58;5.30;99.90
17632;DHT22;8934;51.194;17.150;2023-02-15T09:35:46;5.50;99.90
17632;DHT22;8934;51.194;17.150;2023-02-15T09:38:34;5.70;99.90
17632;DHT22;8934;51.194;17.150;2023-02-15T09:45:02;5.90;99.90
17632;DHT22;8934;51.194;17.150;2023-02-15T09:48:14;6.00;99.90
17632;DHT22;8934;51.194;17.150;2023-02-15T09:51:29;6.00;99.90
17632;DHT22;8934;51.194;17.150;2023-02-15T09:54:33;6.20;99.90
17632;DHT22;8934;51.194;17.150;2023-02-15T09:57:26;6.30;99.90
17632;DHT22;8934;51.194;17.150;2023-02-15T10:00:24;6.40;99.90
17632;DHT22;8934;51.194;17.150;2023-02-15T10:06:35;6.50;99.90
17632;DHT22;8934;51.194;17.150;2023-02-15T10:09:46;6.50;99.90
17632;DHT22;8934;51.194;17.150;2023-02-15T10:12:46;6.60;99.90
17632;DHT22;8934;51.194;17.150;2023-02-15T10:15:48;6.60;99.90
17632;DHT22;8934;51.194;17.150;2023-02-15T10:18:48;6.80;99.90
17632;DHT22;8934;51.194;17.150;2023-02-15T10:21:46;6.90;99.90
17632;DHT22;8934;51.194;17.150;2023-02-15T10:24:52;7.00;99.90
17632;DHT22;8934;51.194;17.150;2023-02-15T10:27:45;7.10;99.90
17632;DHT22;8934;51.194;17.150;2023-02-15T10:30:42;7.30;99.90
17632;DHT22;8934;51.194;17.150;2023-02-15T10:33:38;7.40;99.90
17632;DHT22;8934;51.194;17.150;2023-02-15T10:36:36;7.50;99.90
17632;DHT22;8934;51.194;17.150;2023-02-15T10:39:34;7.50;99.90
17632;DHT22;8934;51.194;17.150;2023-02-15T10:42:33;7.60;99.90
17632;DHT22;8934;51.194;17.150;2023-02-15T10:45:30;7.80;99.90
17632;DHT22;8934;51.194;17.150;2023-02-15T10:48:35;8.00;99.90
17632;DHT22;8934;51.194;17.150;2023-02-15T10:51:36;8.10;99.90
17632;DHT22;8934;51.194;17.150;2023-02-15T10:54:33;8.10;99.90
17632;DHT22;8934;51.194;17.150;2023-02-15T10:57:30;8.20;99.90
17632;DHT22;8934;51.194;17.150;2023-02-15T11:00:25;8.20;99.90
17632;DHT22;8934;51.194;17.150;2023-02-15T11:03:41;8.30;99.90
17632;DHT22;8934;51.194;17.150;2023-02-15T11:06:36;8.30;99.90
17632;DHT22;8934;51.194;17.150;2023-02-15T11:09:37;8.40;99.90
17632;DHT22;8934;51.194;17.150;2023-02-15T11:12:29;8.50;99.90
17632;DHT22;8934;51.194;17.150;2023-02-15T11:15:22;8.60;99.90
17632;DHT22;8934;51.194;17.150;2023-02-15T11:18:14;8.50;99.90
17632;DHT22;8934;51.194;17.150;2023-02-15T11:21:07;8.40;99.90
17632;DHT22;8934;51.194;17.150;2023-02-15T11:23:56;8.50;99.90
17632;DHT22;8934;51.194;17.150;2023-02-15T11:26:46;8.60;99.90
17632;DHT22;8934;51.194;17.150;2023-02-15T11:29:40;8.60;99.90
17632;DHT22;8934;51.194;17.150;2023-02-15T11:32:30;8.70;99.90
17632;DHT22;8934;51.194;17.150;2023-02-15T11:35:24;8.90;99.90
17632;DHT22;8934;51.194;17.150;2023-02-15T11:38:17;9.20;99.90
17632;DHT22;8934;51.194;17.150;2023-02-15T11:41:09;9.50;99.90
17632;DHT22;8934;51.194;17.150;2023-02-15T11:44:00;9.60;99.90
17632;DHT22;8934;51.194;17.150;2023-02-15T11:46:54;9.60;99.90
17632;DHT22;8934;51.194;17.150;2023-02-15T11:49:41;9.60;99.90
17632;DHT22;8934;51.194;17.150;2023-02-15T11:52:29;9.60;99.90
17632;DHT22;8934;51.194;17.150;2023-02-15T11:55:20;9.60;99.90
17632;DHT22;8934;51.194;17.150;2023-02-15T11:58:25;9.60;99.90
17632;DHT22;8934;51.194;17.150;2023-02-15T12:01:18;9.50;99.90
17632;DHT22;8934;51.194;17.150;2023-02-15T12:04:13;9.70;99.90
17632;DHT22;8934;51.194;17.150;2023-02-15T12:07:09;9.90;99.90
17632;DHT22;8934;51.194;17.150;2023-02-15T12:10:03;10.00;99.90
17632;DHT22;8934;51.194;17.150;2023-02-15T12:13:10;10.20;99.90
17632;DHT22;8934;51.194;17.150;2023-02-15T12:15:58;10.20;99.90
17632;DHT22;8934;51.194;17.150;2023-02-15T12:18:55;10.20;99.90
17632;DHT22;8934;51.194;17.150;2023-02-15T12:21:49;10.10;99.90
17632;DHT22;8934;51.194;17.150;2023-02-15T12:24:43;10.10;99.90
17632;DHT22;8934;51.194;17.150;2023-02-15T12:27:33;10.20;99.90
17632;DHT22;8934;51.194;17.150;2023-02-15T12:30:25;10.30;99.90
17632;DHT22;8934;51.194;17.150;2023-02-15T12:33:17;10.40;99.90
17632;DHT22;8934;51.194;17.150;2023-02-15T12:36:13;10.50;99.90
17632;DHT22;8934;51.194;17.150;2023-02-15T12:39:19;10.50;99.90
17632;DHT22;8934;51.194;17.150;2023-02-15T12:42:15;10.60;99.90
17632;DHT22;8934;51.194;17.150;2023-02-15T12:45:22;10.50;99.90
17632;DHT22;8934;51.194;17.150;2023-02-15T12:48:16;10.50;99.90
17632;DHT22;8934;51.194;17.150;2023-02-15T12:51:08;10.40;99.90
17632;DHT22;8934;51.194;17.150;2023-02-15T12:53:56;10.40;99.90
17632;DHT22;8934;51.194;17.150;2023-02-15T12:56:48;10.50;99.90
17632;DHT22;8934;51.194;17.150;2023-02-15T12:59:36;10.60;99.90
17632;DHT22;8934;51.194;17.150;2023-02-15T13:02:30;10.60;99.90
17632;DHT22;8934;51.194;17.150;2023-02-15T13:05:25;10.70;99.90
17632;DHT22;8934;51.194;17.150;2023-02-15T13:08:15;10.90;99.90
17632;DHT22;8934;51.194;17.150;2023-02-15T13:11:06;11.00;99.90
17632;DHT22;8934;51.194;17.150;2023-02-15T13:13:59;10.80;99.90
17632;DHT22;8934;51.194;17.150;2023-02-15T13:16:50;10.70;99.90
17632;DHT22;8934;51.194;17.150;2023-02-15T13:19:42;10.70;99.90
17632;DHT22;8934;51.194;17.150;2023-02-15T13:22:35;10.70;99.90
17632;DHT22;8934;51.194;17.150;2023-02-15T13:25:28;10.60;99.90
17632;DHT22;8934;51.194;17.150;2023-02-15T13:28:19;10.70;99.90
17632;DHT22;8934;51.194;17.150;2023-02-15T13:31:13;10.90;99.90
17632;DHT22;8934;51.194;17.150;2023-02-15T13:34:07;11.00;99.90
17632;DHT22;8934;51.194;17.150;2023-02-15T13:37:04;11.00;99.90
17632;DHT22;8934;51.194;17.150;2023-02-15T13:39:59;11.10;99.90
17632;DHT22;8934;51.194;17.150;2023-02-15T13:42:52;11.10;99.90
17632;DHT22;8934;51.194;17.150;2023-02-15T13:45:56;11.20;99.90
17632;DHT22;8934;51.194;17.150;2023-02-15T13:48:55;11.20;99.90
17632;DHT22;8934;51.194;17.150;2023-02-15T13:51:54;11.20;99.90
17632;DHT22;8934;51.194;17.150;2023-02-15T13:54:57;11.20;99.90
17632;DHT22;8934;51.194;17.150;2023-02-15T13:58:05;11.10;99.90
17632;DHT22;8934;51.194;17.150;2023-02-15T14:01:07;11.00;99.90
17632;DHT22;8934;51.194;17.150;2023-02-15T14:07:31;11.10;99.90
17632;DHT22;8934;51.194;17.150;2023-02-15T14:10:43;11.10;99.90
17632;DHT22;8934;51.194;17.150;2023-02-15T14:13:58;11.10;99.90
17632;DHT22;8934;51.194;17.150;2023-02-15T14:16:53;11.30;99.90
17632;DHT22;8934;51.194;17.150;2023-02-15T14:19:57;11.50;99.90
17632;DHT22;8934;51.194;17.150;2023-02-15T14:22:48;11.50;99.90
17632;DHT22;8934;51.194;17.150;2023-02-15T14:25:40;11.50;99.90
17632;DHT22;8934;51.194;17.150;2023-02-15T14:28:35;11.40;99.90
17632;DHT22;8934;51.194;17.150;2023-02-15T14:31:27;11.30;99.90
17632;DHT22;8934;51.194;17.150;2023-02-15T14:34:21;11.20;99.90
17632;DHT22;8934;51.194;17.150;2023-02-15T14:37:12;11.10;99.90
17632;DHT22;8934;51.194;17.150;2023-02-15T14:40:03;11.20;99.90
17632;DHT22;8934;51.194;17.150;2023-02-15T14:43:16;11.30;99.90
17632;DHT22;8934;51.194;17.150;2023-02-15T14:46:14;11.40;99.90
17632;DHT22;8934;51.194;17.150;2023-02-15T14:49:09;11.50;99.90
17632;DHT22;8934;51.194;17.150;2023-02-15T14:52:02;11.30;99.90
17632;DHT22;8934;51.194;17.150;2023-02-15T14:55:02;11.20;99.90
17632;DHT22;8934;51.194;17.150;2023-02-15T14:57:56;11.30;99.90
17632;DHT22;8934;51.194;17.150;2023-02-15T15:00:44;11.40;99.90
17632;DHT22;8934;51.194;17.150;2023-02-15T15:03:32;11.30;99.90
17632;DHT22;8934;51.194;17.150;2023-02-15T15:06:26;11.30;99.90
17632;DHT22;8934;51.194;17.150;2023-02-15T15:09:21;11.40;99.90
17632;DHT22;8934;51.194;17.150;2023-02-15T15:15:33;11.20;99.90
17632;DHT22;8934;51.194;17.150;2023-02-15T15:21:53;9.80;99.90
17632;DHT22;8934;51.194;17.150;2023-02-15T15:24:52;9.00;99.90
17632;DHT22;8934;51.194;17.150;2023-02-15T15:31:00;8.10;99.90
17632;DHT22;8934;51.194;17.150;2023-02-15T15:34:22;7.80;99.90
17632;DHT22;8934;51.194;17.150;2023-02-15T15:41:03;7.30;99.90
17632;DHT22;8934;51.194;17.150;2023-02-15T15:47:37;6.90;99.90
17632;DHT22;8934;51.194;17.150;2023-02-15T15:50:27;6.70;99.90
17632;DHT22;8934;51.194;17.150;2023-02-15T15:53:19;6.50;99.90
17632;DHT22;8934;51.194;17.150;2023-02-15T15:56:11;6.40;99.90
17632;DHT22;8934;51.194;17.150;2023-02-15T15:59:01;6.20;99.90
17632;DHT22;8934;51.194;17.150;2023-02-15T16:01:51;6.10;99.90
17632;DHT22;8934;51.194;17.150;2023-02-15T16:04:38;5.90;99.90
17632;DHT22;8934;51.194;17.150;2023-02-15T16:07:26;5.70;99.90
17632;DHT22;8934;51.194;17.150;2023-02-15T16:10:23;5.60;99.90
17632;DHT22;8934;51.194;17.150;2023-02-15T16:13:13;5.50;99.90
17632;DHT22;8934;51.194;17.150;2023-02-15T16:16:02;5.30;99.90
17632;DHT22;8934;51.194;17.150;2023-02-15T16:18:52;5.20;99.90
17632;DHT22;8934;51.194;17.150;2023-02-15T16:21:40;5.10;99.90
17632;DHT22;8934;51.194;17.150;2023-02-15T16:24:50;4.90;99.90
17632;DHT22;8934;51.194;17.150;2023-02-15T16:27:42;4.80;99.90
17632;DHT22;8934;51.194;17.150;2023-02-15T16:30:31;4.60;99.90
17632;DHT22;8934;51.194;17.150;2023-02-15T16:33:19;4.40;99.90
17632;DHT22;8934;51.194;17.150;2023-02-15T16:36:12;4.30;99.90
17632;DHT22;8934;51.194;17.150;2023-02-15T16:39:16;4.10;99.90
17632;DHT22;8934;51.194;17.150;2023-02-15T16:42:05;3.90;99.90
17632;DHT22;8934;51.194;17.150;2023-02-15T16:44:56;3.80;99.90
17632;DHT22;8934;51.194;17.150;2023-02-15T16:47:49;3.60;99.90
17632;DHT22;8934;51.194;17.150;2023-02-15T16:50:38;3.50;99.90
17632;DHT22;8934;51.194;17.150;2023-02-15T16:53:28;3.30;99.90
17632;DHT22;8934;51.194;17.150;2023-02-15T16:56:22;3.20;99.90
17632;DHT22;8934;51.194;17.150;2023-02-15T16:59:19;3.10;99.90
17632;DHT22;8934;51.194;17.150;2023-02-15T17:02:13;3.00;99.90
17632;DHT22;8934;51.194;17.150;2023-02-15T17:05:23;2.80;99.90
17632;DHT22;8934;51.194;17.150;2023-02-15T17:08:15;2.60;99.90
17632;DHT22;8934;51.194;17.150;2023-02-15T17:11:15;2.50;99.90
17632;DHT22;8934;51.194;17.150;2023-02-15T17:14:22;2.40;99.90
17632;DHT22;8934;51.194;17.150;2023-02-15T17:17:15;2.20;99.90
17632;DHT22;8934;51.194;17.150;2023-02-15T17:20:03;2.10;99.90
17632;DHT22;8934;51.194;17.150;2023-02-15T17:22:51;2.00;99.90
17632;DHT22;8934;51.194;17.150;2023-02-15T17:25:40;1.90;99.90
17632;DHT22;8934;51.194;17.150;2023-02-15T17:28:31;1.80;99.90
17632;DHT22;8934;51.194;17.150;2023-02-15T17:31:20;1.70;99.90
17632;DHT22;8934;51.194;17.150;2023-02-15T17:37:43;1.50;99.90
17632;DHT22;8934;51.194;17.150;2023-02-15T17:40:33;1.40;99.90
17632;DHT22;8934;51.194;17.150;2023-02-15T17:43:21;1.30;99.90
17632;DHT22;8934;51.194;17.150;2023-02-15T17:46:10;1.20;99.90
17632;DHT22;8934;51.194;17.150;2023-02-15T17:48:59;1.10;99.90
17632;DHT22;8934;51.194;17.150;2023-02-15T17:51:46;1.00;99.90
17632;DHT22;8934;51.194;17.150;2023-02-15T17:54:34;0.90;99.90
17632;DHT22;8934;51.194;17.150;2023-02-15T17:57:45;0.90;99.90
17632;DHT22;8934;51.194;17.150;2023-02-15T18:00:35;0.80;99.90
17632;DHT22;8934;51.194;17.150;2023-02-15T18:03:45;0.70;99.90
17632;DHT22;8934;51.194;17.150;2023-02-15T18:06:51;0.60;99.90
17632;DHT22;8934;51.194;17.150;2023-02-15T18:09:56;0.50;99.90
17632;DHT22;8934;51.194;17.150;2023-02-15T18:13:02;0.40;99.90
17632;DHT22;8934;51.194;17.150;2023-02-15T18:15:49;0.40;99.90
17632;DHT22;8934;51.194;17.150;2023-02-15T18:18:37;0.30;99.90
17632;DHT22;8934;51.194;17.150;2023-02-15T18:21:26;0.30;99.90
17632;DHT22;8934;51.194;17.150;2023-02-15T18:24:19;0.20;99.90
17632;DHT22;8934;51.194;17.150;2023-02-15T18:27:07;0.20;99.90
17632;DHT22;8934;51.194;17.150;2023-02-15T18:29:54;0.10;99.90
17632;DHT22;8934;51.194;17.150;2023-02-15T18:32:42;0.10;99.90
17632;DHT22;8934;51.194;17.150;2023-02-15T18:35:32;0.00;99.90
17632;DHT22;8934;51.194;17.150;2023-02-15T18:38:21;0.00;99.90
17632;DHT22;8934;51.194;17.150;2023-02-15T18:41:14;-0.10;99.90
17632;DHT22;8934;51.194;17.150;2023-02-15T18:44:06;-0.10;99.90
17632;DHT22;8934;51.194;17.150;2023-02-15T18:46:55;-0.20;99.90
17632;DHT22;8934;51.194;17.150;2023-02-15T18:49:42;-0.30;99.90
17632;DHT22;8934;51.194;17.150;2023-02-15T18:52:32;-0.30;99.90